createdAt,value
2023-03-02T00:00:03.432Z,-2.51
2023-03-02T00:01:03.432Z,-2.58
2023-03-02T00:02:03.448Z,-2.57
2023-03-02T00:03:03.464Z,-2.56
2023-03-02T00:04:03.526Z,-2.54
2023-03-02T00:05:03.392Z,-2.56
2023-03-02T00:06:03.377Z,-2.64
2023-03-02T00:07:03.384Z,-2.74
2023-03-02T00:08:03.356Z,-2.81
2023-03-02T00:09:03.353Z,-2.87
2023-03-02T00:10:03.341Z,-2.97
2023-03-02T00:11:03.334Z,-3.08
2023-03-02T00:12:03.335Z,-3.20
2023-03-02T00:13:03.322Z,-3.28
2023-03-02T00:14:03.299Z,-3.38
2023-03-02T00:15:03.307Z,-3.50
2023-03-02T00:16:03.434Z,-3.54
2023-03-02T00:17:03.338Z,-3.57
2023-03-02T00:18:03.268Z,-3.62
2023-03-02T00:19:03.277Z,-3.70
2023-03-02T00:20:03.248Z,-3.81
2023-03-02T00:21:03.248Z,-3.93
2023-03-02T00:22:03.238Z,-3.98
2023-03-02T00:23:03.220Z,-4.02
2023-03-02T00:24:03.213Z,-4.08
2023-03-02T00:25:03.224Z,-3.98
2023-03-02T00:26:03.191Z,-3.98
2023-03-02T00:27:03.208Z,-3.98
2023-03-02T00:28:03.172Z,-3.93
2023-03-02T00:29:03.161Z,-3.90
2023-03-02T00:30:03.144Z,-3.96
2023-03-02T00:31:03.236Z,-3.96
2023-03-02T00:32:03.202Z,-3.99
2023-03-02T00:33:03.124Z,-4.04
2023-03-02T00:34:03.129Z,-4.05
2023-03-02T00:35:03.105Z,-3.83
2023-03-02T00:36:03.191Z,-3.68
2023-03-02T00:37:03.128Z,-3.65
2023-03-02T00:38:03.073Z,-3.61
2023-03-02T00:39:03.071Z,-3.61
2023-03-02T00:40:03.047Z,-3.56
2023-03-02T00:41:03.045Z,-3.62
2023-03-02T00:42:03.053Z,-3.70
2023-03-02T00:43:03.033Z,-3.67
2023-03-02T00:44:03.018Z,-3.65
2023-03-02T00:45:03.017Z,-3.60
2023-03-02T00:46:03.020Z,-3.51
2023-03-02T00:47:03.084Z,-3.49
2023-03-02T00:48:02.971Z,-3.44
2023-03-02T00:49:02.974Z,-3.47
2023-03-02T00:50:02.964Z,-3.44
2023-03-02T00:51:02.953Z,-3.46
2023-03-02T00:52:02.951Z,-3.51
2023-03-02T00:53:02.929Z,-3.56
2023-03-02T00:54:02.965Z,-3.56
2023-03-02T00:55:02.909Z,-3.62
2023-03-02T00:56:02.901Z,-3.65
2023-03-02T00:57:02.930Z,-3.71
2023-03-02T00:58:02.871Z,-3.83
2023-03-02T00:59:02.874Z,-3.76
2023-03-02T01:00:02.853Z,-3.67
2023-03-02T01:01:08.859Z,-3.72
2023-03-02T01:02:02.900Z,-3.78
2023-03-02T01:03:02.950Z,-3.80
2023-03-02T01:04:04.381Z,-3.71
2023-03-02T01:05:02.815Z,-3.65
2023-03-02T01:06:02.804Z,-3.65
2023-03-02T01:07:02.814Z,-3.50
2023-03-02T01:08:02.782Z,-3.39
2023-03-02T01:09:02.775Z,-3.36
2023-03-02T01:10:02.760Z,-3.36
2023-03-02T01:11:02.753Z,-3.32
2023-03-02T01:12:02.769Z,-3.36
2023-03-02T01:13:02.740Z,-3.35
2023-03-02T01:14:02.725Z,-3.43
2023-03-02T01:15:02.728Z,-3.53
2023-03-02T01:16:02.828Z,-3.57
2023-03-02T01:17:02.752Z,-3.50
2023-03-02T01:18:02.688Z,-3.41
2023-03-02T01:19:02.687Z,-3.43
2023-03-02T01:20:02.676Z,-3.39
2023-03-02T01:21:02.667Z,-3.51
2023-03-02T01:22:02.664Z,-3.56
2023-03-02T01:23:02.642Z,-3.51
2023-03-02T01:24:02.648Z,-3.39
2023-03-02T01:25:02.620Z,-3.32
2023-03-02T01:26:02.612Z,-3.35
2023-03-02T01:27:02.607Z,-3.38
2023-03-02T01:28:02.612Z,-3.41
2023-03-02T01:29:02.607Z,-3.53
2023-03-02T01:30:02.596Z,-3.61
2023-03-02T01:31:02.578Z,-3.62
2023-03-02T01:32:02.704Z,-3.65
2023-03-02T01:33:02.567Z,-3.70
2023-03-02T01:34:02.557Z,-3.75
2023-03-02T01:35:02.530Z,-3.75
2023-03-02T01:36:02.603Z,-3.83
2023-03-02T01:37:02.526Z,-3.86
2023-03-02T01:38:02.493Z,-3.96
2023-03-02T01:39:02.534Z,-3.99
2023-03-02T01:40:02.498Z,-4.09
2023-03-02T01:41:02.467Z,-4.20
2023-03-02T01:42:02.472Z,-4.33
2023-03-02T01:43:02.441Z,-4.43
2023-03-02T01:44:02.438Z,-4.44
2023-03-02T01:45:02.444Z,-4.14
2023-03-02T01:46:02.471Z,-3.78
2023-03-02T01:47:02.428Z,-3.33
2023-03-02T01:48:02.404Z,-3.23
2023-03-02T01:49:02.386Z,-3.20
2023-03-02T01:50:02.397Z,-3.28
2023-03-02T01:51:02.373Z,-3.26
2023-03-02T01:52:02.385Z,-3.35
2023-03-02T01:53:04.071Z,-3.41
2023-03-02T01:54:02.340Z,-3.56
2023-03-02T01:55:02.371Z,-3.70
2023-03-02T01:56:02.330Z,-3.76
2023-03-02T01:57:02.331Z,-3.78
2023-03-02T01:58:02.308Z,-3.65
2023-03-02T01:59:02.289Z,-3.53
2023-03-02T02:00:02.293Z,-3.43
2023-03-02T02:01:02.340Z,-3.46
2023-03-02T02:02:02.302Z,-3.53
2023-03-02T02:03:02.252Z,-3.61
2023-03-02T02:04:02.331Z,-3.67
2023-03-02T02:05:02.234Z,-3.70
2023-03-02T02:06:02.236Z,-3.67
2023-03-02T02:07:02.226Z,-3.64
2023-03-02T02:08:02.206Z,-3.62
2023-03-02T02:09:02.197Z,-3.65
2023-03-02T02:10:02.189Z,-3.70
2023-03-02T02:11:02.172Z,-3.84
2023-03-02T02:12:02.181Z,-3.93
2023-03-02T02:13:02.150Z,-4.04
2023-03-02T02:14:02.154Z,-4.14
2023-03-02T02:15:02.137Z,-4.14
2023-03-02T02:16:02.127Z,-4.15
2023-03-02T02:17:02.229Z,-3.91
2023-03-02T02:18:02.117Z,-3.75
2023-03-02T02:19:02.111Z,-3.71
2023-03-02T02:20:02.086Z,-3.78
2023-03-02T02:21:02.076Z,-3.81
2023-03-02T02:22:02.073Z,-3.70
2023-03-02T02:23:02.068Z,-3.71
2023-03-02T02:24:02.064Z,-3.76
2023-03-02T02:25:02.042Z,-3.83
2023-03-02T02:26:02.036Z,-3.87
2023-03-02T02:27:02.014Z,-3.84
2023-03-02T02:28:02.019Z,-3.84
2023-03-02T02:29:01.997Z,-3.87
2023-03-02T02:30:01.992Z,-3.96
2023-03-02T02:31:01.975Z,-4.04
2023-03-02T02:32:02.091Z,-4.07
2023-03-02T02:33:01.989Z,-4.12
2023-03-02T02:34:01.952Z,-4.22
2023-03-02T02:35:01.934Z,-4.38
2023-03-02T02:36:02.034Z,-4.41
2023-03-02T02:37:01.915Z,-4.43
2023-03-02T02:38:01.960Z,-4.41
2023-03-02T02:39:01.900Z,-4.47
2023-03-02T02:40:01.904Z,-4.55
2023-03-02T02:41:01.885Z,-4.62
2023-03-02T02:42:01.871Z,-4.59
2023-03-02T02:43:01.876Z,-4.66
2023-03-02T02:44:01.873Z,-4.75
2023-03-02T02:45:01.843Z,-4.73
2023-03-02T02:46:01.910Z,-4.71
2023-03-02T02:47:01.831Z,-4.66
2023-03-02T02:48:01.816Z,-4.75
2023-03-02T02:49:01.827Z,-4.83
2023-03-02T02:50:01.797Z,-4.91
2023-03-02T02:51:01.783Z,-4.91
2023-03-02T02:52:01.777Z,-4.93
2023-03-02T02:53:01.773Z,-4.97
2023-03-02T02:54:01.756Z,-4.86
2023-03-02T02:55:01.744Z,-4.89
2023-03-02T02:56:01.739Z,-4.93
2023-03-02T02:57:01.735Z,-4.97
2023-03-02T02:58:01.765Z,-4.98
2023-03-02T02:59:01.708Z,-4.86
2023-03-02T03:00:01.728Z,-4.71
2023-03-02T03:01:01.714Z,-4.57
2023-03-02T03:02:01.680Z,-4.54
2023-03-02T03:03:01.675Z,-4.51
2023-03-02T03:04:01.762Z,-4.51
2023-03-02T03:05:01.648Z,-4.58
2023-03-02T03:06:01.639Z,-4.64
2023-03-02T03:07:01.632Z,-4.68
2023-03-02T03:08:01.642Z,-4.66
2023-03-02T03:09:01.611Z,-4.66
2023-03-02T03:10:01.653Z,-4.69
2023-03-02T03:11:01.589Z,-4.66
2023-03-02T03:12:01.585Z,-4.69
2023-03-02T03:13:01.604Z,-4.64
2023-03-02T03:14:01.563Z,-4.68
2023-03-02T03:15:01.578Z,-4.68
2023-03-02T03:16:01.553Z,-4.68
2023-03-02T03:17:01.562Z,-4.66
2023-03-02T03:18:01.522Z,-4.73
2023-03-02T03:19:01.511Z,-4.73
2023-03-02T03:20:01.522Z,-4.68
2023-03-02T03:21:01.496Z,-4.68
2023-03-02T03:22:01.486Z,-4.71
2023-03-02T03:23:01.473Z,-4.68
2023-03-02T03:24:01.462Z,-4.54
2023-03-02T03:25:01.470Z,-4.57
2023-03-02T03:26:01.446Z,-4.61
2023-03-02T03:27:01.429Z,-4.61
2023-03-02T03:28:01.428Z,-4.64
2023-03-02T03:29:01.408Z,-4.61
2023-03-02T03:30:01.416Z,-4.64
2023-03-02T03:31:01.420Z,-4.61
2023-03-02T03:32:01.431Z,-4.55
2023-03-02T03:33:01.372Z,-4.58
2023-03-02T03:34:01.363Z,-4.50
2023-03-02T03:35:01.369Z,-4.48
2023-03-02T03:36:01.407Z,-4.48
2023-03-02T03:37:01.329Z,-4.44
2023-03-02T03:38:01.328Z,-4.41
2023-03-02T03:39:01.310Z,-4.41
2023-03-02T03:40:01.355Z,-4.38
2023-03-02T03:41:01.299Z,-4.38
2023-03-02T03:42:01.290Z,-4.47
2023-03-02T03:43:01.320Z,-4.55
2023-03-02T03:44:01.269Z,-4.48
2023-03-02T03:45:01.323Z,-4.41
2023-03-02T03:46:01.298Z,-4.30
2023-03-02T03:47:01.247Z,-4.30
2023-03-02T03:48:01.238Z,-4.40
2023-03-02T03:49:01.232Z,-4.48
2023-03-02T03:50:01.223Z,-4.59
2023-03-02T03:51:01.194Z,-4.76
2023-03-02T03:52:01.195Z,-4.87
2023-03-02T03:53:03.641Z,-4.91
2023-03-02T03:54:01.178Z,-4.98
2023-03-02T03:55:01.183Z,-5.01
2023-03-02T03:56:01.154Z,-5.03
2023-03-02T03:57:01.139Z,-5.11
2023-03-02T03:58:01.145Z,-5.14
2023-03-02T03:59:01.114Z,-5.19
2023-03-02T04:00:01.126Z,-5.22
2023-03-02T04:01:01.103Z,-5.30
2023-03-02T04:02:01.098Z,-5.23
2023-03-02T04:03:01.174Z,-5.33
2023-03-02T04:04:01.083Z,-5.27
2023-03-02T04:05:01.060Z,-5.33
2023-03-02T04:06:01.051Z,-5.37
2023-03-02T04:07:01.040Z,-5.38
2023-03-02T04:08:01.043Z,-5.41
2023-03-02T04:09:01.022Z,-5.37
2023-03-02T04:10:01.014Z,-5.35
2023-03-02T04:11:01.002Z,-5.30
2023-03-02T04:12:01.006Z,-5.20
2023-03-02T04:13:01.003Z,-5.20
2023-03-02T04:14:00.987Z,-5.16
2023-03-02T04:15:00.959Z,-5.11
2023-03-02T04:16:01.031Z,-5.05
2023-03-02T04:17:00.940Z,-4.93
2023-03-02T04:18:00.949Z,-4.98
2023-03-02T04:19:00.918Z,-5.01
2023-03-02T04:20:00.916Z,-5.07
2023-03-02T04:21:00.920Z,-5.12
2023-03-02T04:22:00.893Z,-5.19
2023-03-02T04:23:00.895Z,-5.30
2023-03-02T04:24:00.877Z,-5.38
2023-03-02T04:25:00.865Z,-5.45
2023-03-02T04:26:00.856Z,-5.45
2023-03-02T04:27:00.849Z,-5.55
2023-03-02T04:28:00.858Z,-5.62
2023-03-02T04:29:00.828Z,-5.72
2023-03-02T04:30:00.822Z,-5.72
2023-03-02T04:31:00.892Z,-5.79
2023-03-02T04:32:00.858Z,-5.83
2023-03-02T04:33:00.839Z,-5.84
2023-03-02T04:34:00.788Z,-5.87
2023-03-02T04:35:00.789Z,-5.92
2023-03-02T04:36:00.812Z,-5.97
2023-03-02T04:37:00.766Z,-5.83
2023-03-02T04:38:00.773Z,-5.73
2023-03-02T04:39:00.740Z,-5.72
2023-03-02T04:40:00.736Z,-5.65
2023-03-02T04:41:00.733Z,-5.55
2023-03-02T04:42:00.719Z,-5.44
2023-03-02T04:43:00.715Z,-5.37
2023-03-02T04:44:00.704Z,-5.35
2023-03-02T04:45:00.686Z,-5.40
2023-03-02T04:46:00.699Z,-5.38
2023-03-02T04:47:00.709Z,-5.25
2023-03-02T04:48:00.686Z,-5.16
2023-03-02T04:49:00.649Z,-5.14
2023-03-02T04:50:00.646Z,-5.11
2023-03-02T04:51:00.634Z,-5.05
2023-03-02T04:52:00.624Z,-5.04
2023-03-02T04:53:00.639Z,-5.12
2023-03-02T04:54:00.616Z,-5.19
2023-03-02T04:55:00.589Z,-5.25
2023-03-02T04:56:00.602Z,-5.31
2023-03-02T04:57:00.572Z,-5.31
2023-03-02T04:58:00.567Z,-5.23
2023-03-02T04:59:00.566Z,-5.19
2023-03-02T05:00:00.551Z,-5.19
2023-03-02T05:01:00.550Z,-5.22
2023-03-02T05:02:00.596Z,-5.22
2023-03-02T05:03:00.535Z,-5.14
2023-03-02T05:04:02.796Z,-5.17
2023-03-02T05:05:00.616Z,-5.23
2023-03-02T05:06:00.509Z,-5.31
2023-03-02T05:07:00.475Z,-5.35
2023-03-02T05:08:00.537Z,-5.34
2023-03-02T05:09:00.455Z,-5.27
2023-03-02T05:10:00.459Z,-5.22
2023-03-02T05:11:00.443Z,-5.26
2023-03-02T05:12:00.437Z,-5.33
2023-03-02T05:13:00.438Z,-5.37
2023-03-02T05:14:00.428Z,-5.40
2023-03-02T05:15:00.397Z,-5.40
2023-03-02T05:16:00.445Z,-5.52
2023-03-02T05:17:00.390Z,-5.59
2023-03-02T05:18:00.408Z,-5.67
2023-03-02T05:19:00.362Z,-5.69
2023-03-02T05:20:00.362Z,-5.70
2023-03-02T05:21:00.347Z,-5.72
2023-03-02T05:22:00.338Z,-5.73
2023-03-02T05:23:00.340Z,-5.73
2023-03-02T05:24:00.323Z,-5.65
2023-03-02T05:25:00.303Z,-5.61
2023-03-02T05:26:00.306Z,-5.58
2023-03-02T05:27:00.232Z,-5.59
2023-03-02T05:28:00.297Z,-5.67
2023-03-02T05:29:00.267Z,-5.67
2023-03-02T05:30:00.224Z,-5.67
2023-03-02T05:31:00.230Z,-5.70
2023-03-02T05:32:00.236Z,-5.69
2023-03-02T05:33:00.186Z,-5.69
2023-03-02T05:34:00.172Z,-5.77
2023-03-02T05:35:00.170Z,-5.83
2023-03-02T05:36:00.215Z,-5.77
2023-03-02T05:37:00.154Z,-5.73
2023-03-02T05:38:00.207Z,-5.80
2023-03-02T05:39:00.171Z,-5.73
2023-03-02T05:40:00.139Z,-5.62
2023-03-02T05:41:00.114Z,-5.65
2023-03-02T05:42:00.116Z,-5.61
2023-03-02T05:43:00.108Z,-5.61
2023-03-02T05:44:00.136Z,-5.61
2023-03-02T05:45:00.090Z,-5.65
2023-03-02T05:46:00.070Z,-5.69
2023-03-02T05:47:00.221Z,-5.58
2023-03-02T05:48:00.061Z,-5.49
2023-03-02T05:49:00.044Z,-5.49
2023-03-02T05:50:00.027Z,-5.43
2023-03-02T05:51:00.011Z,-5.45
2023-03-02T05:52:00.002Z,-5.41
2023-03-02T05:52:59.997Z,-5.38
2023-03-02T05:53:59.999Z,-5.34
2023-03-02T05:54:59.977Z,-5.30
2023-03-02T05:55:59.975Z,-5.19
2023-03-02T05:56:59.981Z,-5.23
2023-03-02T05:57:59.976Z,-5.25
2023-03-02T05:58:59.969Z,-5.26
2023-03-02T05:59:59.931Z,-5.30
2023-03-02T06:00:59.921Z,-5.26
2023-03-02T06:01:59.927Z,-5.31
2023-03-02T06:02:59.958Z,-5.35
2023-03-02T06:03:59.929Z,-5.31
2023-03-02T06:04:59.884Z,-5.35
2023-03-02T06:05:59.864Z,-5.16
2023-03-02T06:06:59.871Z,-4.94
2023-03-02T06:07:59.856Z,-4.85
2023-03-02T06:08:59.882Z,-4.79
2023-03-02T06:09:59.829Z,-4.82
2023-03-02T06:10:59.822Z,-4.83
2023-03-02T06:11:59.808Z,-4.87
2023-03-02T06:12:59.806Z,-4.93
2023-03-02T06:13:59.810Z,-4.89
2023-03-02T06:14:59.792Z,-4.87
2023-03-02T06:15:59.837Z,-4.91
2023-03-02T06:16:59.846Z,-4.93
2023-03-02T06:17:59.752Z,-4.93
2023-03-02T06:18:59.774Z,-4.75
2023-03-02T06:19:59.732Z,-4.54
2023-03-02T06:20:59.735Z,-4.46
2023-03-02T06:21:59.714Z,-4.40
2023-03-02T06:22:59.711Z,-4.37
2023-03-02T06:23:59.733Z,-4.22
2023-03-02T06:24:59.691Z,-4.05
2023-03-02T06:25:59.677Z,-4.09
2023-03-02T06:26:59.681Z,-4.09
2023-03-02T06:27:59.659Z,-4.18
2023-03-02T06:28:59.677Z,-4.30
2023-03-02T06:29:59.640Z,-4.44
2023-03-02T06:30:59.662Z,-4.51
2023-03-02T06:31:59.760Z,-4.48
2023-03-02T06:32:59.616Z,-4.55
2023-03-02T06:33:59.698Z,-4.65
2023-03-02T06:34:59.700Z,-4.69
2023-03-02T06:35:59.668Z,-4.71
2023-03-02T06:36:59.588Z,-4.75
2023-03-02T06:37:59.562Z,-4.71
2023-03-02T06:38:59.572Z,-4.71
2023-03-02T06:39:59.541Z,-4.64
2023-03-02T06:40:59.535Z,-4.64
2023-03-02T06:41:59.522Z,-4.64
2023-03-02T06:42:59.517Z,-4.48
2023-03-02T06:43:59.525Z,-4.40
2023-03-02T06:44:59.505Z,-4.43
2023-03-02T06:45:59.527Z,-4.40
2023-03-02T06:46:59.478Z,-4.33
2023-03-02T06:47:59.471Z,-4.30
2023-03-02T06:48:59.474Z,-4.18
2023-03-02T06:49:59.446Z,-3.76
2023-03-02T06:50:59.442Z,-3.39
2023-03-02T06:51:59.423Z,-3.11
2023-03-02T06:52:59.422Z,-2.85
2023-03-02T06:53:59.421Z,-2.68
2023-03-02T06:54:59.405Z,-2.40
2023-03-02T06:55:59.395Z,-2.26
2023-03-02T06:56:59.382Z,-2.23
2023-03-02T06:57:59.368Z,-2.05
2023-03-02T06:58:59.376Z,-1.81
2023-03-02T06:59:59.350Z,-1.54
2023-03-02T07:00:59.388Z,-1.46
2023-03-02T07:02:05.352Z,-1.30
2023-03-02T07:02:59.324Z,-1.05
2023-03-02T07:03:59.469Z,-0.78
2023-03-02T07:04:59.310Z,-0.54
2023-03-02T07:05:59.299Z,-0.19
2023-03-02T07:06:59.289Z,0.18
2023-03-02T07:07:59.282Z,0.20
2023-03-02T07:08:59.291Z,0.31
2023-03-02T07:09:59.255Z,0.25
2023-03-02T07:10:59.241Z,0.53
2023-03-02T07:11:59.238Z,0.64
2023-03-02T07:12:59.226Z,1.06
2023-03-02T07:13:59.228Z,1.51
2023-03-02T07:14:59.212Z,1.83
2023-03-02T07:15:59.213Z,1.98
2023-03-02T07:16:59.273Z,2.44
2023-03-02T07:17:59.173Z,2.76
2023-03-02T07:18:59.176Z,3.06
2023-03-02T07:19:59.152Z,2.46
2023-03-02T07:20:59.142Z,2.88
2023-03-02T07:21:59.152Z,2.61
2023-03-02T07:22:59.125Z,2.45
2023-03-02T07:23:59.119Z,2.74
2023-03-02T07:24:59.115Z,3.15
2023-03-02T07:25:59.089Z,3.47
2023-03-02T07:26:59.096Z,3.75
2023-03-02T07:27:59.074Z,4.40
2023-03-02T07:28:59.061Z,4.07
2023-03-02T07:29:59.057Z,4.69
2023-03-02T07:30:59.085Z,4.89
2023-03-02T07:31:59.071Z,4.36
2023-03-02T07:32:59.019Z,4.46
2023-03-02T07:33:59.024Z,4.37
2023-03-02T07:34:59.002Z,4.10
2023-03-02T07:35:59.038Z,4.29
2023-03-02T07:36:59.008Z,4.55
2023-03-02T07:37:58.978Z,4.61
2023-03-02T07:38:58.969Z,4.37
2023-03-02T07:40:00.701Z,4.15
2023-03-02T07:40:58.954Z,4.62
2023-03-02T07:41:58.959Z,4.96
2023-03-02T07:42:58.923Z,5.13
2023-03-02T07:43:58.923Z,5.12
2023-03-02T07:44:58.903Z,4.73
2023-03-02T07:45:59.653Z,5.37
2023-03-02T07:46:58.897Z,5.59
2023-03-02T07:47:58.868Z,6.07
2023-03-02T07:48:58.900Z,6.54
2023-03-02T07:49:58.847Z,6.81
2023-03-02T07:50:58.845Z,6.97
2023-03-02T07:51:58.828Z,7.13
2023-03-02T07:53:00.016Z,6.56
2023-03-02T07:53:58.829Z,6.04
2023-03-02T07:54:58.797Z,5.98
2023-03-02T07:55:58.791Z,5.66
2023-03-02T07:56:58.782Z,5.95
2023-03-02T07:57:58.770Z,5.83
2023-03-02T07:58:58.785Z,4.99
2023-03-02T07:59:58.745Z,4.67
2023-03-02T08:00:58.745Z,4.69
2023-03-02T08:01:58.759Z,4.88
2023-03-02T08:02:58.839Z,5.09
2023-03-02T08:03:58.724Z,5.02
2023-03-02T08:04:58.701Z,4.86
2023-03-02T08:05:58.689Z,4.80
2023-03-02T08:06:58.687Z,5.05
2023-03-02T08:07:58.669Z,5.16
2023-03-02T08:08:58.679Z,5.07
2023-03-02T08:09:58.642Z,4.91
2023-03-02T08:10:58.641Z,5.22
2023-03-02T08:11:58.628Z,4.94
2023-03-02T08:12:58.617Z,5.04
2023-03-02T08:13:58.616Z,4.80
2023-03-02T08:14:58.600Z,5.01
2023-03-02T08:15:58.640Z,5.13
2023-03-02T08:16:58.587Z,5.40
2023-03-02T08:17:58.565Z,5.71
2023-03-02T08:18:59.925Z,5.45
2023-03-02T08:19:58.542Z,5.09
2023-03-02T08:20:58.538Z,5.32
2023-03-02T08:21:58.546Z,5.40
2023-03-02T08:22:58.517Z,4.99
2023-03-02T08:23:58.570Z,4.70
2023-03-02T08:24:58.499Z,4.92
2023-03-02T08:25:58.492Z,4.96
2023-03-02T08:26:58.487Z,4.52
2023-03-02T08:27:58.463Z,4.50
2023-03-02T08:28:58.456Z,4.36
2023-03-02T08:29:58.540Z,4.37
2023-03-02T08:30:58.445Z,4.65
2023-03-02T08:31:58.632Z,4.86
2023-03-02T08:32:58.413Z,4.65
2023-03-02T08:33:58.416Z,4.28
2023-03-02T08:34:58.394Z,4.19
2023-03-02T08:35:58.582Z,4.18
2023-03-02T08:36:58.374Z,4.79
2023-03-02T08:37:58.376Z,5.23
2023-03-02T08:38:58.369Z,5.59
2023-03-02T08:39:58.913Z,6.00
2023-03-02T08:40:58.337Z,6.43
2023-03-02T08:41:58.326Z,6.69
2023-03-02T08:42:58.318Z,6.77
2023-03-02T08:43:58.308Z,6.44
2023-03-02T08:44:58.290Z,6.04
2023-03-02T08:45:58.314Z,5.70
2023-03-02T08:46:58.295Z,5.27
2023-03-02T08:47:58.301Z,4.92
2023-03-02T08:48:58.294Z,5.17
2023-03-02T08:49:58.239Z,5.25
2023-03-02T08:50:58.235Z,5.49
2023-03-02T08:51:58.236Z,6.06
2023-03-02T08:52:58.209Z,6.54
2023-03-02T08:53:58.209Z,7.19
2023-03-02T08:54:58.224Z,7.15
2023-03-02T08:55:58.174Z,7.66
2023-03-02T08:56:58.187Z,8.11
2023-03-02T08:57:58.157Z,8.53
2023-03-02T08:58:58.143Z,8.72
2023-03-02T08:59:58.131Z,8.86
2023-03-02T09:00:58.143Z,8.12
2023-03-02T09:01:58.132Z,8.22
2023-03-02T09:02:58.109Z,7.82
2023-03-02T09:03:58.113Z,7.23
2023-03-02T09:04:58.100Z,6.87
2023-03-02T09:05:58.072Z,6.89
2023-03-02T09:06:58.068Z,6.80
2023-03-02T09:07:58.054Z,6.89
2023-03-02T09:08:58.074Z,7.55
2023-03-02T09:09:58.033Z,8.07
2023-03-02T09:10:58.024Z,8.33
2023-03-02T09:11:58.009Z,7.87
2023-03-02T09:12:58.001Z,7.58
2023-03-02T09:13:57.996Z,7.27
2023-03-02T09:14:58.010Z,7.04
2023-03-02T09:15:57.966Z,7.23
2023-03-02T09:16:58.027Z,7.67
2023-03-02T09:17:57.996Z,8.42
2023-03-02T09:18:57.957Z,8.88
2023-03-02T09:19:57.947Z,9.49
2023-03-02T09:20:57.932Z,9.48
2023-03-02T09:21:57.909Z,9.71
2023-03-02T09:22:57.901Z,10.07
2023-03-02T09:23:57.912Z,9.63
2023-03-02T09:24:57.895Z,10.24
2023-03-02T09:25:57.866Z,10.78
2023-03-02T09:26:57.869Z,11.02
2023-03-02T09:27:57.851Z,10.19
2023-03-02T09:28:57.856Z,9.76
2023-03-02T09:29:57.849Z,9.28
2023-03-02T09:30:57.883Z,9.66
2023-03-02T09:31:57.962Z,10.01
2023-03-02T09:32:57.948Z,9.78
2023-03-02T09:33:57.787Z,9.25
2023-03-02T09:34:57.800Z,9.32
2023-03-02T09:35:57.772Z,9.60
2023-03-02T09:36:57.768Z,9.04
2023-03-02T09:37:57.791Z,8.83
2023-03-02T09:38:57.746Z,9.35
2023-03-02T09:39:57.742Z,9.99
2023-03-02T09:40:57.720Z,9.67
2023-03-02T09:41:57.704Z,9.31
2023-03-02T09:42:57.697Z,10.17
2023-03-02T09:43:59.918Z,10.33
2023-03-02T09:44:57.690Z,10.14
2023-03-02T09:45:57.730Z,9.78
2023-03-02T09:46:57.655Z,9.67
2023-03-02T09:47:57.651Z,10.33
2023-03-02T09:48:57.630Z,10.09
2023-03-02T09:49:57.637Z,9.83
2023-03-02T09:50:57.643Z,10.32
2023-03-02T09:51:57.593Z,10.56
2023-03-02T09:52:57.704Z,10.07
2023-03-02T09:53:57.689Z,10.30
2023-03-02T09:54:57.591Z,10.36
2023-03-02T09:55:57.551Z,10.51
2023-03-02T09:56:57.556Z,10.39
2023-03-02T09:57:57.552Z,10.28
2023-03-02T09:58:57.528Z,9.83
2023-03-02T10:00:01.760Z,10.03
2023-03-02T10:00:57.521Z,10.65
2023-03-02T10:01:57.494Z,10.92
2023-03-02T10:03:05.093Z,10.15
2023-03-02T10:03:57.536Z,10.52
2023-03-02T10:04:57.485Z,11.54
2023-03-02T10:05:57.463Z,11.96
2023-03-02T10:06:57.463Z,12.02
2023-03-02T10:07:59.364Z,12.71
2023-03-02T10:08:57.431Z,11.49
2023-03-02T10:09:57.426Z,11.54
2023-03-02T10:10:57.406Z,11.31
2023-03-02T10:11:57.389Z,11.75
2023-03-02T10:12:57.385Z,11.68
2023-03-02T10:13:57.377Z,10.44
2023-03-02T10:14:57.369Z,11.14
2023-03-02T10:15:57.374Z,11.43
2023-03-02T10:16:57.461Z,11.32
2023-03-02T10:17:57.348Z,10.77
2023-03-02T10:18:57.309Z,10.58
2023-03-02T10:19:57.320Z,11.01
2023-03-02T10:20:57.291Z,11.83
2023-03-02T10:21:57.286Z,12.19
2023-03-02T10:22:57.271Z,11.41
2023-03-02T10:23:57.352Z,10.86
2023-03-02T10:24:57.257Z,11.99
2023-03-02T10:25:57.243Z,12.29
2023-03-02T10:26:57.240Z,12.59
2023-03-02T10:27:57.264Z,13.14
2023-03-02T10:28:57.202Z,12.30
2023-03-02T10:29:57.210Z,12.01
2023-03-02T10:30:57.274Z,11.78
2023-03-02T10:31:57.191Z,11.80
2023-03-02T10:32:57.167Z,12.33
2023-03-02T10:33:57.171Z,12.56
2023-03-02T10:34:57.162Z,12.41
2023-03-02T10:35:57.139Z,12.77
2023-03-02T10:36:57.163Z,13.17
2023-03-02T10:37:57.115Z,12.96
2023-03-02T10:38:57.099Z,12.37
2023-03-02T10:39:57.118Z,12.81
2023-03-02T10:40:57.089Z,12.12
2023-03-02T10:41:57.092Z,12.44
2023-03-02T10:42:57.060Z,11.93
2023-03-02T10:43:57.052Z,11.47
2023-03-02T10:44:57.055Z,10.19
2023-03-02T10:45:57.078Z,10.91
2023-03-02T10:46:57.054Z,11.19
2023-03-02T10:47:57.020Z,11.28
2023-03-02T10:48:57.029Z,11.57
2023-03-02T10:49:57.004Z,11.93
2023-03-02T10:50:56.973Z,11.99
2023-03-02T10:51:56.989Z,12.44
2023-03-02T10:53:00.616Z,12.26
2023-03-02T10:53:56.957Z,11.99
2023-03-02T10:54:56.979Z,11.68
2023-03-02T10:55:56.930Z,11.78
2023-03-02T10:56:56.916Z,12.37
2023-03-02T10:57:56.904Z,11.56
2023-03-02T10:58:56.895Z,10.89
2023-03-02T10:59:56.898Z,10.55
2023-03-02T11:00:56.870Z,10.70
2023-03-02T11:01:56.975Z,10.81
2023-03-02T11:02:56.850Z,11.46
2023-03-02T11:03:56.848Z,12.23
2023-03-02T11:04:57.784Z,11.39
2023-03-02T11:05:56.827Z,10.95
2023-03-02T11:06:56.817Z,11.35
2023-03-02T11:07:56.805Z,11.86
2023-03-02T11:08:56.793Z,12.19
2023-03-02T11:09:56.820Z,11.59
2023-03-02T11:10:59.911Z,10.81
2023-03-02T11:11:57.017Z,10.32
2023-03-02T11:12:56.763Z,10.39
2023-03-02T11:13:56.744Z,9.94
2023-03-02T11:14:56.743Z,9.82
2023-03-02T11:15:56.758Z,9.93
2023-03-02T11:16:56.708Z,10.58
2023-03-02T11:17:56.701Z,10.77
2023-03-02T11:18:56.683Z,11.97
2023-03-02T11:19:56.696Z,11.97
2023-03-02T11:20:56.664Z,11.29
2023-03-02T11:21:56.664Z,10.92
2023-03-02T11:22:56.643Z,11.78
2023-03-02T11:23:56.652Z,12.42
2023-03-02T11:24:56.645Z,11.94
2023-03-02T11:25:56.619Z,12.24
2023-03-02T11:26:56.610Z,12.79
2023-03-02T11:27:56.595Z,13.04
2023-03-02T11:28:56.581Z,12.74
2023-03-02T11:29:56.592Z,12.13
2023-03-02T11:30:56.576Z,12.04
2023-03-02T11:31:56.730Z,12.75
2023-03-02T11:32:56.549Z,12.99
2023-03-02T11:34:01.903Z,13.36
2023-03-02T11:34:56.562Z,12.82
2023-03-02T11:35:56.553Z,12.66
2023-03-02T11:36:56.499Z,13.03
2023-03-02T11:37:56.494Z,13.24
2023-03-02T11:38:56.476Z,13.65
2023-03-02T11:39:56.477Z,12.12
2023-03-02T11:40:56.558Z,12.30
2023-03-02T11:41:56.468Z,12.38
2023-03-02T11:42:56.440Z,12.16
2023-03-02T11:43:56.439Z,10.92
2023-03-02T11:44:56.421Z,10.70
2023-03-02T11:45:56.423Z,10.78
2023-03-02T11:46:56.449Z,11.28
2023-03-02T11:48:02.570Z,11.57
2023-03-02T11:48:56.399Z,10.83
2023-03-02T11:49:56.413Z,10.28
2023-03-02T11:50:56.409Z,10.95
2023-03-02T11:51:58.278Z,11.44
2023-03-02T11:52:56.339Z,10.95
2023-03-02T11:53:56.387Z,10.92
2023-03-02T11:54:56.330Z,10.39
2023-03-02T11:55:56.336Z,10.76
2023-03-02T11:56:56.354Z,10.53
2023-03-02T11:57:56.290Z,10.39
2023-03-02T11:58:56.283Z,10.32
2023-03-02T11:59:56.280Z,11.28
2023-03-02T12:00:56.296Z,11.59
2023-03-02T12:01:56.270Z,10.40
2023-03-02T12:02:56.233Z,10.91
2023-03-02T12:03:56.230Z,10.63
2023-03-02T12:04:56.211Z,11.34
2023-03-02T12:05:56.228Z,11.29
2023-03-02T12:06:56.206Z,11.96
2023-03-02T12:07:56.196Z,11.64
2023-03-02T12:08:56.210Z,12.24
2023-03-02T12:09:56.172Z,11.70
2023-03-02T12:10:56.192Z,11.94
2023-03-02T12:11:56.142Z,13.04
2023-03-02T12:12:56.136Z,12.19
2023-03-02T12:13:56.126Z,11.49
2023-03-02T12:14:56.115Z,11.85
2023-03-02T12:15:56.140Z,12.46
2023-03-02T12:16:56.148Z,11.86
2023-03-02T12:17:56.107Z,12.09
2023-03-02T12:18:56.076Z,11.49
2023-03-02T12:19:56.073Z,11.59
2023-03-02T12:20:56.080Z,11.57
2023-03-02T12:21:56.050Z,11.24
2023-03-02T12:22:56.028Z,11.38
2023-03-02T12:23:56.034Z,12.06
2023-03-02T12:24:56.015Z,11.89
2023-03-02T12:25:56.056Z,12.19
2023-03-02T12:26:56.008Z,12.45
2023-03-02T12:27:55.985Z,12.54
2023-03-02T12:28:57.747Z,12.44
2023-03-02T12:29:55.968Z,12.89
2023-03-02T12:30:55.953Z,13.27
2023-03-02T12:31:56.200Z,13.88
2023-03-02T12:32:55.926Z,13.98
2023-03-02T12:33:55.930Z,13.17
2023-03-02T12:34:55.909Z,12.37
2023-03-02T12:35:55.922Z,12.89
2023-03-02T12:36:55.978Z,12.41
2023-03-02T12:37:55.936Z,11.77
2023-03-02T12:38:55.867Z,11.59
2023-03-02T12:39:55.862Z,12.12
2023-03-02T12:40:55.860Z,12.56
2023-03-02T12:41:55.852Z,11.50
2023-03-02T12:42:55.925Z,11.56
2023-03-02T12:43:55.833Z,11.39
2023-03-02T12:44:55.899Z,12.27
2023-03-02T12:45:56.021Z,12.26
2023-03-02T12:46:55.802Z,12.62
2023-03-02T12:47:55.887Z,13.47
2023-03-02T12:48:55.941Z,13.92
2023-03-02T12:49:55.758Z,12.74
2023-03-02T12:50:55.747Z,12.19
2023-03-02T12:51:55.890Z,12.01
2023-03-02T12:52:55.724Z,11.85
2023-03-02T12:53:55.725Z,11.47
2023-03-02T12:54:55.703Z,11.27
2023-03-02T12:55:55.733Z,12.01
2023-03-02T12:56:55.689Z,11.53